createdAt,value
2023-02-23T00:02:06.258Z,14.77
2023-02-23T00:03:30.916Z,14.77
2023-02-23T00:04:36.223Z,16.40
2023-02-23T00:07:03.128Z,18.27
2023-02-23T00:08:30.867Z,18.27
2023-02-23T00:09:35.267Z,17.60
2023-02-23T00:12:07.727Z,17.13
2023-02-23T00:13:30.900Z,17.13
2023-02-23T00:14:35.414Z,17.20
2023-02-23T00:17:02.024Z,18.02
2023-02-23T00:18:30.887Z,18.02
2023-02-23T00:19:28.390Z,21.08
2023-02-23T00:21:54.932Z,17.30
2023-02-23T00:23:30.956Z,17.30
2023-02-23T00:24:23.166Z,17.45
2023-02-23T00:26:51.340Z,15.20
2023-02-23T00:28:31.024Z,15.20
2023-02-23T00:29:23.526Z,24.13
2023-02-23T00:31:51.217Z,12.77
2023-02-23T00:33:31.137Z,12.77
2023-02-23T00:34:22.045Z,16.15
2023-02-23T00:36:55.125Z,20.52
2023-02-23T00:38:30.881Z,20.52
2023-02-23T00:39:25.204Z,18.80
2023-02-23T00:41:52.722Z,14.60
2023-02-23T00:43:30.898Z,14.60
2023-02-23T00:44:21.746Z,15.40
2023-02-23T00:46:51.627Z,13.90
2023-02-23T00:48:30.909Z,13.90
2023-02-23T00:49:20.190Z,19.15
2023-02-23T00:51:47.544Z,21.92
2023-02-23T00:53:30.890Z,21.92
2023-02-23T00:54:15.828Z,13.32
2023-02-23T00:56:42.976Z,23.20
2023-02-23T00:58:30.909Z,23.20
2023-02-23T00:59:09.813Z,18.15
2023-02-23T01:01:37.748Z,16.63
2023-02-23T01:03:30.897Z,16.63
2023-02-23T01:04:05.724Z,14.88
2023-02-23T01:06:32.348Z,15.15
2023-02-23T01:08:30.930Z,15.15
2023-02-23T01:08:58.865Z,17.92
2023-02-23T01:11:28.697Z,14.43
2023-02-23T01:13:30.887Z,14.43
2023-02-23T01:13:57.960Z,22.73
2023-02-23T01:16:27.945Z,15.50
2023-02-23T01:18:30.911Z,15.50
2023-02-23T01:18:59.875Z,19.00
2023-02-23T01:21:32.488Z,20.48
2023-02-23T01:23:30.904Z,20.48
2023-02-23T01:23:59.140Z,17.90
2023-02-23T01:26:28.124Z,15.25
2023-02-23T01:28:30.901Z,15.25
2023-02-23T01:29:00.729Z,17.55
2023-02-23T01:33:30.949Z,9.00
2023-02-23T01:33:59.759Z,16.25
2023-02-23T01:36:28.918Z,23.73
2023-02-23T01:38:30.935Z,23.73
2023-02-23T01:38:57.007Z,29.63
2023-02-23T01:41:25.004Z,20.05
2023-02-23T01:43:30.912Z,20.05
2023-02-23T01:44:05.122Z,15.05
2023-02-23T01:46:33.414Z,25.35
2023-02-23T01:48:32.655Z,25.35
2023-02-23T01:49:00.176Z,18.23
2023-02-23T01:51:32.136Z,18.13
2023-02-23T01:53:30.926Z,18.13
2023-02-23T01:54:10.097Z,24.40
2023-02-23T01:56:45.048Z,18.52
2023-02-23T01:58:30.939Z,18.52
2023-02-23T01:59:15.216Z,19.73
2023-02-23T02:01:43.058Z,11.88
2023-02-23T02:03:30.944Z,11.88
2023-02-23T02:04:16.581Z,22.10
2023-02-23T02:06:46.345Z,14.10
2023-02-23T02:08:30.948Z,14.10
2023-02-23T02:09:17.469Z,17.17
2023-02-23T02:11:46.371Z,20.05
2023-02-23T02:13:30.983Z,20.05
2023-02-23T02:14:14.451Z,15.88
2023-02-23T02:17:02.299Z,20.35
2023-02-23T02:18:30.929Z,20.35
2023-02-23T02:19:31.646Z,16.83
2023-02-23T02:22:15.647Z,18.77
2023-02-23T02:23:31.007Z,18.77
2023-02-23T02:25:03.946Z,15.23
2023-02-23T02:27:49.251Z,14.75
2023-02-23T02:28:30.953Z,14.75
2023-02-23T02:30:39.227Z,23.25
2023-02-23T02:33:19.075Z,17.08
2023-02-23T02:33:30.922Z,17.08
2023-02-23T02:36:13.371Z,15.48
2023-02-23T02:38:31.036Z,15.48
2023-02-23T02:38:53.611Z,25.83
2023-02-23T02:41:35.543Z,17.48
2023-02-23T02:43:30.938Z,17.48
2023-02-23T02:44:15.378Z,15.33
2023-02-23T02:46:48.041Z,17.30
2023-02-23T02:48:31.260Z,17.30
2023-02-23T02:51:51.735Z,16.27
2023-02-23T02:53:30.941Z,16.27
2023-02-23T02:54:29.049Z,22.58
2023-02-23T02:57:00.315Z,20.70
2023-02-23T02:58:30.941Z,20.70
2023-02-23T02:59:45.346Z,17.73
2023-02-23T03:02:41.380Z,20.48
2023-02-23T03:03:30.981Z,20.48
2023-02-23T03:05:33.170Z,18.08
2023-02-23T03:08:40.190Z,18.75
2023-02-23T03:08:40.322Z,18.75
2023-02-23T03:11:29.230Z,24.85
2023-02-23T03:13:30.944Z,24.85
2023-02-23T03:14:46.913Z,18.70
2023-02-23T03:17:53.527Z,18.38
2023-02-23T03:18:30.953Z,18.38
2023-02-23T03:20:43.890Z,12.85
2023-02-23T03:23:48.492Z,19.13
2023-02-23T03:23:48.672Z,19.13
2023-02-23T03:26:42.846Z,16.80
2023-02-23T03:28:30.939Z,16.80
2023-02-23T03:29:51.305Z,16.98
2023-02-23T03:32:51.379Z,19.25
2023-02-23T03:33:30.938Z,19.25
2023-02-23T03:35:43.906Z,17.55
2023-02-23T03:38:41.087Z,16.13
2023-02-23T03:38:41.268Z,16.13
2023-02-23T03:41:29.911Z,20.75
2023-02-23T03:43:30.987Z,20.75
2023-02-23T03:44:24.171Z,17.95
2023-02-23T03:47:11.092Z,24.50
2023-02-23T03:48:30.998Z,24.50
2023-02-23T03:49:58.886Z,23.13
2023-02-23T03:52:52.575Z,19.95
2023-02-23T03:53:30.987Z,19.95
2023-02-23T03:55:44.239Z,25.27
2023-02-23T03:58:34.818Z,19.25
2023-02-23T03:58:34.957Z,19.25
2023-02-23T04:01:22.622Z,19.52
2023-02-23T04:03:30.969Z,19.52
2023-02-23T04:04:10.119Z,23.20
2023-02-23T04:06:59.443Z,19.92
2023-02-23T04:08:30.954Z,19.92
2023-02-23T04:09:44.670Z,16.88
2023-02-23T04:12:48.563Z,20.30
2023-02-23T04:13:30.947Z,20.30
2023-02-23T04:15:24.127Z,22.73
2023-02-23T04:17:53.140Z,18.75
2023-02-23T04:18:30.968Z,18.75
2023-02-23T04:20:20.387Z,24.83
2023-02-23T04:22:46.840Z,25.48
2023-02-23T04:23:30.946Z,25.48
2023-02-23T04:25:16.533Z,27.98
2023-02-23T04:27:43.763Z,23.40
2023-02-23T04:28:30.982Z,23.40
2023-02-23T04:30:11.527Z,21.45
2023-02-23T04:32:38.219Z,18.67
2023-02-23T04:33:30.932Z,18.67
2023-02-23T04:35:04.953Z,32.83
2023-02-23T04:37:31.374Z,24.20
2023-02-23T04:38:30.977Z,24.20
2023-02-23T04:39:57.837Z,26.15
2023-02-23T04:42:24.240Z,23.75
2023-02-23T04:43:30.973Z,23.75
2023-02-23T04:44:50.585Z,22.20
2023-02-23T04:47:17.165Z,21.10
2023-02-23T04:48:30.957Z,21.10
2023-02-23T04:49:44.388Z,17.15
2023-02-23T04:52:10.800Z,21.85
2023-02-23T04:53:30.996Z,21.85
2023-02-23T04:54:41.035Z,30.02
2023-02-23T04:57:07.923Z,23.63
2023-02-23T04:58:30.982Z,23.63
2023-02-23T04:59:34.294Z,24.85
2023-02-23T05:02:00.876Z,21.58
2023-02-23T05:03:30.941Z,21.58
2023-02-23T05:04:27.256Z,34.55
2023-02-23T05:06:53.972Z,29.48
2023-02-23T05:08:30.989Z,29.48
2023-02-23T05:09:20.534Z,19.33
2023-02-23T05:11:46.889Z,18.75
2023-02-23T05:13:30.962Z,18.75
2023-02-23T05:14:13.291Z,19.90
2023-02-23T05:16:39.771Z,22.63
2023-02-23T05:18:30.966Z,22.63
2023-02-23T05:19:06.275Z,31.80
2023-02-23T05:21:32.739Z,20.23
2023-02-23T05:23:31.053Z,20.23
2023-02-23T05:23:59.104Z,27.48
2023-02-23T05:26:25.741Z,23.63
2023-02-23T05:28:30.979Z,23.63
2023-02-23T05:28:52.111Z,20.67
2023-02-23T05:31:19.036Z,17.77
2023-02-23T05:33:30.960Z,17.77
2023-02-23T05:33:45.964Z,21.80
2023-02-23T05:36:16.261Z,29.00
2023-02-23T05:38:30.988Z,29.00
2023-02-23T05:38:43.144Z,27.27
2023-02-23T05:41:11.982Z,27.15
2023-02-23T05:43:31.006Z,27.15
2023-02-23T05:43:39.016Z,20.38
2023-02-23T05:46:26.026Z,32.28
2023-02-23T05:48:31.002Z,32.28
2023-02-23T05:48:58.641Z,17.67
2023-02-23T05:53:30.951Z,8.58
2023-02-23T05:53:51.944Z,17.58
2023-02-23T05:56:20.735Z,21.83
2023-02-23T05:58:30.992Z,21.83
2023-02-23T05:58:52.401Z,26.20
2023-02-23T06:01:20.071Z,26.80
2023-02-23T06:03:30.995Z,26.80
2023-02-23T06:03:47.267Z,17.55
2023-02-23T06:06:14.716Z,20.17
2023-02-23T06:08:30.986Z,20.17
2023-02-23T06:08:41.390Z,29.67
2023-02-23T06:11:07.927Z,25.05
2023-02-23T06:13:30.966Z,25.05
2023-02-23T06:13:34.471Z,26.40
2023-02-23T06:16:01.089Z,28.52
2023-02-23T06:18:28.114Z,24.95
2023-02-23T06:18:31.003Z,24.95
2023-02-23T06:20:54.916Z,32.17
2023-02-23T06:23:21.377Z,18.95
2023-02-23T06:23:30.985Z,18.95
2023-02-23T06:25:47.842Z,23.48
2023-02-23T06:28:15.254Z,22.23
2023-02-23T06:28:31.043Z,22.23
2023-02-23T06:30:42.052Z,29.02
2023-02-23T06:33:08.727Z,19.42
2023-02-23T06:33:30.955Z,19.42
2023-02-23T06:35:35.585Z,23.85
2023-02-23T06:38:02.469Z,24.30
2023-02-23T06:38:31.027Z,24.30
2023-02-23T06:40:29.187Z,19.25
2023-02-23T06:42:55.638Z,27.35
2023-02-23T06:43:30.991Z,27.35
2023-02-23T06:45:22.154Z,36.30
2023-02-23T06:47:49.035Z,25.67
2023-02-23T06:48:30.974Z,25.67
2023-02-23T06:50:15.958Z,24.98
2023-02-23T06:52:42.357Z,16.67
2023-02-23T06:53:30.972Z,16.67
2023-02-23T06:55:09.607Z,27.35
2023-02-23T06:57:36.024Z,20.25
2023-02-23T06:58:31.002Z,20.25
2023-02-23T07:00:03.126Z,23.40
2023-02-23T07:02:29.997Z,26.45
2023-02-23T07:03:30.983Z,26.45
2023-02-23T07:04:56.345Z,29.85
2023-02-23T07:07:22.748Z,27.60
2023-02-23T07:08:31.046Z,27.60
2023-02-23T07:09:49.132Z,20.05
2023-02-23T07:12:15.522Z,25.65
2023-02-23T07:13:31.038Z,25.65
2023-02-23T07:14:41.922Z,31.02
2023-02-23T07:17:08.407Z,21.40
2023-02-23T07:18:30.996Z,21.40
2023-02-23T07:19:35.013Z,18.95
2023-02-23T07:22:01.431Z,23.77
2023-02-23T07:23:31.017Z,23.77
2023-02-23T07:24:28.307Z,23.13
2023-02-23T07:26:58.093Z,25.40
2023-02-23T07:28:31.003Z,25.40
2023-02-23T07:29:24.645Z,18.13
2023-02-23T07:31:51.170Z,21.30
2023-02-23T07:33:31.034Z,21.30
2023-02-23T07:34:17.637Z,28.42
2023-02-23T07:36:44.050Z,18.65
2023-02-23T07:38:30.993Z,18.65
2023-02-23T07:39:10.578Z,17.50
2023-02-23T07:41:36.986Z,22.85
2023-02-23T07:43:31.029Z,22.85
2023-02-23T07:44:03.362Z,18.50
2023-02-23T07:46:29.797Z,23.80
2023-02-23T07:48:31.028Z,23.80
2023-02-23T07:48:56.331Z,25.05
2023-02-23T07:51:22.920Z,29.00
2023-02-23T07:53:31.000Z,29.00
2023-02-23T07:53:49.511Z,21.08
2023-02-23T07:56:16.062Z,15.50
2023-02-23T07:58:31.024Z,15.50
2023-02-23T07:58:44.397Z,18.85
2023-02-23T08:01:12.444Z,23.13
2023-02-23T08:03:31.007Z,23.13
2023-02-23T08:03:39.277Z,22.52
2023-02-23T08:06:06.445Z,21.42
2023-02-23T08:08:31.026Z,21.42
2023-02-23T08:08:33.893Z,23.52
2023-02-23T08:11:02.256Z,16.45
2023-02-23T08:13:29.820Z,16.52
2023-02-23T08:13:31.004Z,16.52
2023-02-23T08:15:56.949Z,16.02
2023-02-23T08:18:23.644Z,20.83
2023-02-23T08:18:31.070Z,20.83
2023-02-23T08:20:50.184Z,27.83
2023-02-23T08:23:19.249Z,15.95
2023-02-23T08:23:31.037Z,15.95
2023-02-23T08:25:45.571Z,21.15
2023-02-23T08:28:12.328Z,15.80
2023-02-23T08:28:31.050Z,15.80
2023-02-23T08:30:40.684Z,17.05
2023-02-23T08:33:08.006Z,16.63
2023-02-23T08:33:31.015Z,16.63
2023-02-23T08:35:34.464Z,14.65
2023-02-23T08:38:00.851Z,14.65
2023-02-23T08:38:31.026Z,14.65
2023-02-23T08:40:27.344Z,15.93
2023-02-23T08:42:53.765Z,12.32
2023-02-23T08:43:31.016Z,12.32
2023-02-23T08:45:20.457Z,14.43
2023-02-23T08:47:46.867Z,20.38
2023-02-23T08:48:31.113Z,20.38
2023-02-23T08:50:14.294Z,19.13
2023-02-23T08:52:40.809Z,18.92
2023-02-23T08:53:31.023Z,18.92
2023-02-23T08:55:08.007Z,14.52
2023-02-23T08:57:35.577Z,22.35
2023-02-23T08:58:31.022Z,22.35
2023-02-23T09:00:03.186Z,18.48
2023-02-23T09:02:29.587Z,15.60
2023-02-23T09:03:31.041Z,15.60
2023-02-23T09:04:56.066Z,17.75
2023-02-23T09:07:23.139Z,22.33
2023-02-23T09:08:31.020Z,22.33
2023-02-23T09:09:58.860Z,19.67
2023-02-23T09:12:25.459Z,21.65
2023-02-23T09:13:31.037Z,21.65
2023-02-23T09:14:53.669Z,14.38
2023-02-23T09:17:22.873Z,16.75
2023-02-23T09:18:31.032Z,16.75
2023-02-23T09:19:50.625Z,20.95
2023-02-23T09:22:18.373Z,15.95
2023-02-23T09:23:31.042Z,15.95
2023-02-23T09:24:44.985Z,28.13
2023-02-23T09:27:14.734Z,22.38
2023-02-23T09:28:31.244Z,22.38
2023-02-23T09:29:44.479Z,20.45
2023-02-23T09:32:12.287Z,19.33
2023-02-23T09:33:30.998Z,19.33
2023-02-23T09:34:38.829Z,18.80
2023-02-23T09:37:06.090Z,21.88
2023-02-23T09:38:31.036Z,21.88
2023-02-23T09:39:38.471Z,18.85
2023-02-23T09:42:29.894Z,24.92
2023-02-23T09:43:31.034Z,24.92
2023-02-23T09:45:23.481Z,17.45
2023-02-23T09:48:09.239Z,15.70
2023-02-23T09:48:31.037Z,15.70
2023-02-23T09:50:38.361Z,25.00
2023-02-23T09:53:20.418Z,22.42
2023-02-23T09:53:33.444Z,22.42
2023-02-23T09:55:48.460Z,25.23
2023-02-23T09:58:23.823Z,20.55
2023-02-23T09:58:31.115Z,20.55
2023-02-23T10:00:58.984Z,21.63
2023-02-23T10:03:37.651Z,31.85
2023-02-23T10:03:37.809Z,31.85
2023-02-23T10:06:08.879Z,25.40
2023-02-23T10:08:31.075Z,25.40
2023-02-23T10:08:38.379Z,18.90
2023-02-23T10:11:25.218Z,21.48
2023-02-23T10:14:00.466Z,23.55
2023-02-23T10:17:22.458Z,34.47
2023-02-23T10:18:45.727Z,34.47
2023-02-23T10:19:58.777Z,21.00
2023-02-23T10:22:26.883Z,29.95
2023-02-23T10:23:31.411Z,29.95
2023-02-23T10:25:00.637Z,32.97
2023-02-23T10:27:38.712Z,18.67
2023-02-23T10:28:31.153Z,18.67
2023-02-23T10:30:17.554Z,23.63
2023-02-23T10:32:52.620Z,16.55
2023-02-23T10:33:31.083Z,16.55
2023-02-23T10:35:21.744Z,26.40
2023-02-23T10:37:50.388Z,33.63
2023-02-23T10:38:31.097Z,33.63
2023-02-23T10:40:22.509Z,20.05
2023-02-23T10:42:52.559Z,17.77
2023-02-23T10:43:31.084Z,17.77
2023-02-23T10:45:24.831Z,18.77
2023-02-23T10:48:01.753Z,21.77
2023-02-23T10:48:31.127Z,21.77
2023-02-23T10:50:30.339Z,22.80
2023-02-23T10:53:03.387Z,25.25
2023-02-23T10:53:31.090Z,25.25
2023-02-23T10:55:32.365Z,29.67
2023-02-23T10:58:16.831Z,26.48
2023-02-23T10:58:31.135Z,26.48
2023-02-23T11:00:52.653Z,28.83
2023-02-23T11:03:27.644Z,28.52
2023-02-23T11:03:31.142Z,28.52
2023-02-23T11:05:54.326Z,25.92
2023-02-23T11:08:32.348Z,21.98
2023-02-23T11:08:32.506Z,21.98
2023-02-23T11:11:04.183Z,24.05
2023-02-23T11:13:50.477Z,33.60
2023-02-23T11:13:50.653Z,33.60
2023-02-23T11:16:25.588Z,30.30
2023-02-23T11:18:31.124Z,30.30
2023-02-23T11:19:03.301Z,17.35
2023-02-23T11:21:35.681Z,19.73
2023-02-23T11:23:31.142Z,19.73
2023-02-23T11:24:18.098Z,17.17
2023-02-23T11:26:47.556Z,22.45
2023-02-23T11:28:31.191Z,22.45
2023-02-23T11:29:39.226Z,36.38
2023-02-23T11:32:10.730Z,19.63
2023-02-23T11:33:31.123Z,19.63
2023-02-23T11:34:40.761Z,28.42
2023-02-23T11:37:21.244Z,22.38
2023-02-23T11:38:31.115Z,22.38
2023-02-23T11:39:57.373Z,25.60
2023-02-23T11:42:33.414Z,26.83
2023-02-23T11:43:33.113Z,26.83
2023-02-23T11:45:17.885Z,24.73
2023-02-23T11:47:53.025Z,27.27
2023-02-23T11:48:31.086Z,27.27
2023-02-23T11:50:35.428Z,17.35
2023-02-23T11:53:04.543Z,20.52
2023-02-23T11:53:31.117Z,20.52
2023-02-23T11:55:33.022Z,25.35
2023-02-23T11:58:25.148Z,19.77
2023-02-23T11:58:31.100Z,19.77
2023-02-23T12:01:00.497Z,19.77
2023-02-23T12:03:32.180Z,25.63
2023-02-23T12:03:32.298Z,25.63
2023-02-23T12:05:59.396Z,21.10
2023-02-23T12:08:53.162Z,30.33
2023-02-23T12:08:53.304Z,30.33
2023-02-23T12:11:25.432Z,27.77
2023-02-23T12:13:31.107Z,27.77
2023-02-23T12:14:00.830Z,17.90
2023-02-23T12:16:50.168Z,14.73
2023-02-23T12:18:31.124Z,14.73
2023-02-23T12:19:46.602Z,25.60
2023-02-23T12:22:20.348Z,26.02
2023-02-23T12:23:31.166Z,26.02
2023-02-23T12:25:01.400Z,20.55
2023-02-23T12:28:18.836Z,18.75
2023-02-23T12:28:31.098Z,18.75
2023-02-23T12:30:59.093Z,20.92
2023-02-23T12:33:33.821Z,26.35
2023-02-23T12:33:34.159Z,26.35
2023-02-23T12:36:11.823Z,16.73
2023-02-23T12:38:31.092Z,16.73
2023-02-23T12:38:38.144Z,17.00
2023-02-23T12:41:13.028Z,14.23
2023-02-23T12:43:31.114Z,14.23
2023-02-23T12:43:51.441Z,31.60
2023-02-23T12:46:30.241Z,20.27
2023-02-23T12:48:31.142Z,20.27
2023-02-23T12:49:16.922Z,24.73
2023-02-23T12:51:51.539Z,14.60
2023-02-23T12:53:31.153Z,14.60
2023-02-23T12:54:18.517Z,18.83
2023-02-23T12:56:57.138Z,15.20
2023-02-23T12:58:31.125Z,15.20
2023-02-23T12:59:44.865Z,10.73
2023-02-23T13:02:25.896Z,11.63
2023-02-23T13:03:31.110Z,11.63
2023-02-23T13:05:12.984Z,13.60
2023-02-23T13:08:13.096Z,14.27
2023-02-23T13:08:31.101Z,14.27
2023-02-23T13:11:27.616Z,18.42
2023-02-23T13:13:31.205Z,18.42
2023-02-23T13:14:15.276Z,16.35
2023-02-23T13:16:48.181Z,24.83
2023-02-23T13:18:31.160Z,24.83
2023-02-23T13:19:34.895Z,16.67
2023-02-23T13:22:06.964Z,16.58
2023-02-23T13:23:31.138Z,16.58
2023-02-23T13:24:45.322Z,11.85
2023-02-23T13:27:17.095Z,16.20
2023-02-23T13:28:31.138Z,16.20
2023-02-23T13:29:50.189Z,15.07
2023-02-23T13:32:20.897Z,17.00
2023-02-23T13:33:43.336Z,17.00
2023-02-23T13:34:56.370Z,18.70
2023-02-23T13:37:27.473Z,12.57
2023-02-23T13:38:31.099Z,12.57
2023-02-23T13:40:06.574Z,9.80
2023-02-23T13:42:58.607Z,17.05
2023-02-23T13:43:31.116Z,17.05
2023-02-23T13:46:10.175Z,8.18
2023-02-23T13:48:31.112Z,8.18
2023-02-23T13:49:02.371Z,15.48
2023-02-23T13:51:38.636Z,11.63
2023-02-23T13:53:31.105Z,11.63
2023-02-23T13:54:14.664Z,12.68
2023-02-23T13:56:48.468Z,13.65
2023-02-23T13:58:31.143Z,13.65
2023-02-23T13:59:24.195Z,14.60
2023-02-23T14:01:53.807Z,14.15
2023-02-23T14:03:31.185Z,14.15
2023-02-23T14:04:36.991Z,13.30
2023-02-23T14:07:09.406Z,13.10
2023-02-23T14:08:31.113Z,13.10
2023-02-23T14:09:41.386Z,10.20
2023-02-23T14:12:07.738Z,24.10
2023-02-23T14:13:31.132Z,24.10
2023-02-23T14:14:37.292Z,12.10
2023-02-23T14:17:15.921Z,17.98
2023-02-23T14:18:31.151Z,17.98
2023-02-23T14:20:01.004Z,15.15
2023-02-23T14:22:28.145Z,9.80
2023-02-23T14:23:31.122Z,9.80
2023-02-23T14:25:32.544Z,25.02
2023-02-23T14:28:21.718Z,12.93
2023-02-23T14:28:31.187Z,12.93
2023-02-23T14:30:59.068Z,23.08
2023-02-23T14:33:48.253Z,12.70
2023-02-23T14:33:48.442Z,12.70
2023-02-23T14:36:23.658Z,21.88
2023-02-23T14:38:45.671Z,21.88
2023-02-23T14:38:55.727Z,14.50
2023-02-23T14:41:29.984Z,11.82
2023-02-23T14:43:31.767Z,11.82
2023-02-23T14:44:05.078Z,14.88
2023-02-23T14:46:32.985Z,21.48
2023-02-23T14:48:31.141Z,21.48
2023-02-23T14:49:07.922Z,15.60
2023-02-23T14:51:42.483Z,13.35
2023-02-23T14:53:31.136Z,13.35
2023-02-23T14:54:32.251Z,24.35
2023-02-23T14:57:01.297Z,15.63
2023-02-23T14:58:31.140Z,15.63
2023-02-23T14:59:35.672Z,12.52
2023-02-23T15:02:09.211Z,13.45
2023-02-23T15:03:31.121Z,13.45
2023-02-23T15:04:38.502Z,15.43
2023-02-23T15:07:06.269Z,24.65
2023-02-23T15:08:31.164Z,24.65
2023-02-23T15:09:43.113Z,15.18
2023-02-23T15:12:31.124Z,16.55
2023-02-23T15:13:31.155Z,16.55
2023-02-23T15:15:03.085Z,11.38
2023-02-23T15:17:32.504Z,18.20
2023-02-23T15:18:31.168Z,18.20
2023-02-23T15:20:15.472Z,32.40
2023-02-23T15:22:46.766Z,20.83
2023-02-23T15:23:31.268Z,20.83
2023-02-23T15:25:26.065Z,13.98
2023-02-23T15:27:53.098Z,14.27
2023-02-23T15:28:31.144Z,14.27
2023-02-23T15:30:31.746Z,21.83
2023-02-23T15:33:02.348Z,17.38
2023-02-23T15:33:31.188Z,17.38
2023-02-23T15:35:30.123Z,19.33
2023-02-23T15:38:11.215Z,16.15
2023-02-23T15:38:43.881Z,16.15
2023-02-23T15:40:45.102Z,13.20
2023-02-23T15:43:11.900Z,13.95
2023-02-23T15:43:31.135Z,13.95
2023-02-23T15:46:05.648Z,12.48
2023-02-23T15:48:45.624Z,9.98
2023-02-23T15:48:45.790Z,9.98
2023-02-23T15:51:50.095Z,14.82
2023-02-23T15:53:31.123Z,14.82
2023-02-23T15:54:30.810Z,12.77
2023-02-23T15:57:02.698Z,14.73
2023-02-23T15:58:31.256Z,14.73
2023-02-23T15:59:34.786Z,10.57
2023-02-23T16:02:03.021Z,15.32
2023-02-23T16:03:31.689Z,15.32
2023-02-23T16:04:33.854Z,14.82
2023-02-23T16:07:11.730Z,13.95
2023-02-23T16:08:31.151Z,13.95
2023-02-23T16:09:39.003Z,12.70
2023-02-23T16:12:16.816Z,8.77
2023-02-23T16:13:31.141Z,8.77
2023-02-23T16:14:45.463Z,12.88
2023-02-23T16:17:43.442Z,16.17
2023-02-23T16:18:31.137Z,16.17
2023-02-23T16:20:34.409Z,10.77
2023-02-23T16:23:02.953Z,19.20
2023-02-23T16:23:34.009Z,19.20
2023-02-23T16:25:31.164Z,19.02
2023-02-23T16:28:03.233Z,19.17
2023-02-23T16:28:31.202Z,19.17
2023-02-23T16:30:32.575Z,13.93
2023-02-23T16:33:05.706Z,15.10
2023-02-23T16:33:31.132Z,15.10
2023-02-23T16:35:48.134Z,13.02
2023-02-23T16:38:20.077Z,13.60
2023-02-23T16:38:31.120Z,13.60
2023-02-23T16:40:48.697Z,15.90
2023-02-23T16:43:15.585Z,14.75
2023-02-23T16:43:31.153Z,14.75
2023-02-23T16:45:43.184Z,8.70
2023-02-23T16:48:18.974Z,25.17
2023-02-23T16:48:31.138Z,25.17
2023-02-23T16:50:45.735Z,9.05
2023-02-23T16:53:12.855Z,11.75
2023-02-23T16:53:31.150Z,11.75
2023-02-23T16:56:00.965Z,10.20
2023-02-23T16:58:30.407Z,12.40
2023-02-23T16:58:31.130Z,12.40
2023-02-23T17:00:56.834Z,19.77
2023-02-23T17:03:25.676Z,11.18
2023-02-23T17:03:32.651Z,11.18
2023-02-23T17:05:52.757Z,10.98
2023-02-23T17:08:19.154Z,12.00
2023-02-23T17:08:31.155Z,12.00
2023-02-23T17:10:48.360Z,20.42
2023-02-23T17:13:20.543Z,8.63
2023-02-23T17:13:31.144Z,8.63
2023-02-23T17:15:51.581Z,11.00
2023-02-23T17:18:19.103Z,16.05
2023-02-23T17:18:31.177Z,16.05
2023-02-23T17:20:45.564Z,14.98
2023-02-23T17:23:11.947Z,15.48
2023-02-23T17:23:31.204Z,15.48
2023-02-23T17:25:38.530Z,12.15
2023-02-23T17:28:05.149Z,10.27
2023-02-23T17:28:31.277Z,10.27
2023-02-23T17:30:33.467Z,10.75
2023-02-23T17:33:01.124Z,21.55
2023-02-23T17:33:31.175Z,21.55
2023-02-23T17:35:28.407Z,13.55
2023-02-23T17:37:54.922Z,11.50
2023-02-23T17:38:31.122Z,11.50
2023-02-23T17:40:26.227Z,15.43
2023-02-23T17:42:53.417Z,11.30
2023-02-23T17:43:31.192Z,11.30
2023-02-23T17:45:19.820Z,14.20
2023-02-23T17:47:46.350Z,18.63
2023-02-23T17:48:31.169Z,18.63
2023-02-23T17:50:12.834Z,9.18
2023-02-23T17:52:39.272Z,10.13
2023-02-23T17:53:31.195Z,10.13
2023-02-23T17:55:06.141Z,12.23
2023-02-23T17:57:32.924Z,14.60
2023-02-23T17:58:31.143Z,14.60
2023-02-23T17:59:59.285Z,13.98
2023-02-23T18:02:25.830Z,13.75
2023-02-23T18:03:31.229Z,13.75
2023-02-23T18:04:52.911Z,8.68
2023-02-23T18:07:21.555Z,19.83
2023-02-23T18:08:31.148Z,19.83
2023-02-23T18:09:50.633Z,20.92
2023-02-23T18:12:19.188Z,13.02
2023-02-23T18:13:31.125Z,13.02
2023-02-23T18:14:46.482Z,14.70
2023-02-23T18:17:13.470Z,13.48
2023-02-23T18:18:31.233Z,13.48
2023-02-23T18:19:39.896Z,16.73
2023-02-23T18:22:06.484Z,17.90
2023-02-23T18:23:31.194Z,17.90
2023-02-23T18:24:32.846Z,12.52
2023-02-23T18:27:02.542Z,12.52
2023-02-23T18:28:31.172Z,12.52
2023-02-23T18:29:33.919Z,8.95
2023-02-23T18:32:02.695Z,15.80
2023-02-23T18:33:31.152Z,15.80
2023-02-23T18:34:30.040Z,13.73
2023-02-23T18:37:02.123Z,10.23
2023-02-23T18:38:31.151Z,10.23
2023-02-23T18:39:31.036Z,11.80
2023-02-23T18:42:00.431Z,12.90
2023-02-23T18:43:31.173Z,12.90
2023-02-23T18:44:27.406Z,10.75
2023-02-23T18:46:54.736Z,17.85
2023-02-23T18:48:31.156Z,17.85
2023-02-23T18:49:23.505Z,18.05
2023-02-23T18:51:49.970Z,12.27
2023-02-23T18:53:31.152Z,12.27
2023-02-23T18:54:16.870Z,16.58
2023-02-23T18:56:45.025Z,11.20
2023-02-23T18:58:31.197Z,11.20
2023-02-23T18:59:11.791Z,8.10
2023-02-23T19:01:38.410Z,12.65
2023-02-23T19:03:31.167Z,12.65
2023-02-23T19:04:06.996Z,13.18
2023-02-23T19:06:34.605Z,11.48
2023-02-23T19:08:31.177Z,11.48
2023-02-23T19:09:03.324Z,9.90
2023-02-23T19:11:32.678Z,13.07
2023-02-23T19:13:31.167Z,13.07
2023-02-23T19:14:01.675Z,12.40
2023-02-23T19:16:31.020Z,11.40
2023-02-23T19:18:31.174Z,11.40
2023-02-23T19:18:58.701Z,15.07
2023-02-23T19:21:25.696Z,13.15
2023-02-23T19:23:31.233Z,13.15
2023-02-23T19:23:53.436Z,11.15
2023-02-23T19:26:21.275Z,14.10
2023-02-23T19:28:31.175Z,14.10
2023-02-23T19:28:48.255Z,15.18
2023-02-23T19:31:19.493Z,12.88
2023-02-23T19:33:31.353Z,12.88
2023-02-23T19:33:48.220Z,8.48
2023-02-23T19:36:17.809Z,16.77
2023-02-23T19:38:31.152Z,16.77
2023-02-23T19:38:44.512Z,7.63
2023-02-23T19:41:20.919Z,11.23
2023-02-23T19:43:31.167Z,11.23
2023-02-23T19:43:47.949Z,9.05
2023-02-23T19:46:17.052Z,7.45
2023-02-23T19:48:31.188Z,7.45
2023-02-23T19:48:45.631Z,9.65
2023-02-23T19:51:12.866Z,9.02
2023-02-23T19:53:31.181Z,9.02
2023-02-23T19:53:39.908Z,8.88
2023-02-23T19:56:10.324Z,10.32
2023-02-23T19:58:31.170Z,10.32
2023-02-23T19:58:37.070Z,16.50
2023-02-23T20:01:11.757Z,9.25
2023-02-23T20:03:31.191Z,9.25
2023-02-23T20:03:39.556Z,13.27
2023-02-23T20:06:06.770Z,11.88
2023-02-23T20:08:31.153Z,11.88
2023-02-23T20:08:33.419Z,17.30
2023-02-23T20:11:00.410Z,8.10
2023-02-23T20:12:46.477Z,8.10
2023-02-23T20:13:27.268Z,6.43
2023-02-23T20:15:37.556Z,6.43
2023-02-23T20:16:04.335Z,6.80
2023-02-23T20:18:33.372Z,6.70
2023-02-23T20:20:36.916Z,6.70
2023-02-23T20:20:59.849Z,5.40
2023-02-23T20:23:26.238Z,13.02
2023-02-23T20:25:36.379Z,13.02
2023-02-23T20:25:52.660Z,9.30
2023-02-23T20:28:18.982Z,6.80
2023-02-23T20:30:36.459Z,6.80
2023-02-23T20:30:47.469Z,12.43
2023-02-23T20:33:15.169Z,11.45
2023-02-23T20:35:36.411Z,11.45
2023-02-23T20:35:42.154Z,6.70
2023-02-23T20:38:08.747Z,7.68
2023-02-23T20:40:35.271Z,6.65
2023-02-23T20:40:36.426Z,6.65
2023-02-23T20:43:01.654Z,6.72
2023-02-23T20:45:28.369Z,12.88
2023-02-23T20:45:36.406Z,12.88
2023-02-23T20:47:55.563Z,8.75
2023-02-23T20:50:33.871Z,13.70
2023-02-23T20:50:36.416Z,13.70
2023-02-23T20:53:03.316Z,11.35
2023-02-23T20:55:30.819Z,9.73
2023-02-23T20:55:36.400Z,9.73
2023-02-23T20:57:58.091Z,11.82
2023-02-23T21:00:28.683Z,10.60
2023-02-23T21:00:36.410Z,10.60
2023-02-23T21:02:55.828Z,12.80
2023-02-23T21:05:27.214Z,8.90
2023-02-23T21:05:38.130Z,8.90
2023-02-23T21:07:58.667Z,12.50
2023-02-23T21:10:25.166Z,11.30
2023-02-23T21:10:36.418Z,11.30
2023-02-23T21:12:52.957Z,8.38
2023-02-23T21:15:19.460Z,7.07
2023-02-23T21:15:36.450Z,7.07
2023-02-23T21:17:45.831Z,9.35
2023-02-23T21:20:13.228Z,11.48
2023-02-23T21:20:36.422Z,11.48
2023-02-23T21:22:39.963Z,7.47
2023-02-23T21:25:10.403Z,9.48
2023-02-23T21:25:36.446Z,9.48
2023-02-23T21:27:38.027Z,6.88
2023-02-23T21:30:06.293Z,5.75
2023-02-23T21:30:36.422Z,5.75
2023-02-23T21:32:35.272Z,10.57
2023-02-23T21:35:01.745Z,14.48
2023-02-23T21:35:36.412Z,14.48
2023-02-23T21:37:28.276Z,6.38
2023-02-23T21:39:54.678Z,6.25
2023-02-23T21:40:36.423Z,6.25
2023-02-23T21:42:23.626Z,6.55
2023-02-23T21:44:50.463Z,15.50
2023-02-23T21:45:36.433Z,15.50
2023-02-23T21:47:16.820Z,7.85
2023-02-23T21:49:43.492Z,7.90
2023-02-23T21:50:36.449Z,7.90
2023-02-23T21:52:10.357Z,6.50
2023-02-23T21:54:36.981Z,8.95
2023-02-23T21:55:36.434Z,8.95